sensor_id;sensor_type;location;lat;lon;timestamp;P1;durP1;ratioP1;P2;durP2;ratioP2
9898;SDS011;4988;49.238;6.698;2023-03-14T00:00:20;11.20;;;3.10;;
9898;SDS011;4988;49.238;6.698;2023-03-14T00:02:45;9.67;;;3.43;;
9898;SDS011;4988;49.238;6.698;2023-03-14T00:05:11;12.17;;;3.43;;
9898;SDS011;4988;49.238;6.698;2023-03-14T00:07:37;8.73;;;2.80;;
9898;SDS011;4988;49.238;6.698;2023-03-14T00:10:04;9.37;;;3.00;;
9898;SDS011;4988;49.238;6.698;2023-03-14T00:12:32;8.53;;;2.90;;
9898;SDS011;4988;49.238;6.698;2023-03-14T00:14:57;13.40;;;3.37;;
9898;SDS011;4988;49.238;6.698;2023-03-14T00:17:25;12.27;;;3.10;;
9898;SDS011;4988;49.238;6.698;2023-03-14T00:19:50;10.83;;;2.83;;
9898;SDS011;4988;49.238;6.698;2023-03-14T00:22:18;5.83;;;2.77;;
9898;SDS011;4988;49.238;6.698;2023-03-14T00:24:44;9.13;;;3.10;;
9898;SDS011;4988;49.238;6.698;2023-03-14T00:27:09;11.20;;;3.73;;
9898;SDS011;4988;49.238;6.698;2023-03-14T00:29:35;7.40;;;2.80;;
9898;SDS011;4988;49.238;6.698;2023-03-14T00:32:00;11.80;;;3.17;;
9898;SDS011;4988;49.238;6.698;2023-03-14T00:34:28;10.10;;;2.80;;
9898;SDS011;4988;49.238;6.698;2023-03-14T00:36:54;8.13;;;3.30;;
9898;SDS011;4988;49.238;6.698;2023-03-14T00:39:20;11.17;;;3.37;;
9898;SDS011;4988;49.238;6.698;2023-03-14T00:41:45;11.03;;;3.20;;
9898;SDS011;4988;49.238;6.698;2023-03-14T00:44:10;11.93;;;3.07;;
9898;SDS011;4988;49.238;6.698;2023-03-14T00:46:36;9.20;;;2.80;;
9898;SDS011;4988;49.238;6.698;2023-03-14T00:49:01;13.60;;;3.20;;
9898;SDS011;4988;49.238;6.698;2023-03-14T00:51:26;9.17;;;3.03;;
9898;SDS011;4988;49.238;6.698;2023-03-14T00:53:52;12.20;;;3.30;;
9898;SDS011;4988;49.238;6.698;2023-03-14T00:56:17;10.27;;;3.10;;
9898;SDS011;4988;49.238;6.698;2023-03-14T00:58:42;21.70;;;3.40;;
9898;SDS011;4988;49.238;6.698;2023-03-14T01:01:09;10.97;;;3.00;;
9898;SDS011;4988;49.238;6.698;2023-03-14T01:03:37;11.00;;;2.90;;
9898;SDS011;4988;49.238;6.698;2023-03-14T01:06:10;9.70;;;3.10;;
9898;SDS011;4988;49.238;6.698;2023-03-14T01:08:37;10.50;;;3.20;;
9898;SDS011;4988;49.238;6.698;2023-03-14T01:11:07;14.53;;;2.87;;
9898;SDS011;4988;49.238;6.698;2023-03-14T01:13:37;10.33;;;2.90;;
9898;SDS011;4988;49.238;6.698;2023-03-14T01:16:03;9.63;;;2.67;;
9898;SDS011;4988;49.238;6.698;2023-03-14T01:18:31;7.83;;;2.97;;
9898;SDS011;4988;49.238;6.698;2023-03-14T01:20:57;9.00;;;3.20;;
9898;SDS011;4988;49.238;6.698;2023-03-14T01:23:22;8.83;;;2.83;;
9898;SDS011;4988;49.238;6.698;2023-03-14T01:25:48;7.67;;;2.70;;
9898;SDS011;4988;49.238;6.698;2023-03-14T01:28:13;8.93;;;2.70;;
9898;SDS011;4988;49.238;6.698;2023-03-14T01:30:38;11.90;;;2.93;;
9898;SDS011;4988;49.238;6.698;2023-03-14T01:33:04;11.07;;;3.13;;
9898;SDS011;4988;49.238;6.698;2023-03-14T01:35:29;9.33;;;2.70;;
9898;SDS011;4988;49.238;6.698;2023-03-14T01:37:54;9.83;;;2.90;;
9898;SDS011;4988;49.238;6.698;2023-03-14T01:40:20;8.87;;;2.40;;
9898;SDS011;4988;49.238;6.698;2023-03-14T01:42:46;10.50;;;2.90;;
9898;SDS011;4988;49.238;6.698;2023-03-14T01:51:42;11.57;;;3.00;;
9898;SDS011;4988;49.238;6.698;2023-03-14T01:54:31;6.40;;;2.97;;
9898;SDS011;4988;49.238;6.698;2023-03-14T01:57:11;12.60;;;3.13;;
9898;SDS011;4988;49.238;6.698;2023-03-14T01:59:41;7.27;;;2.67;;
9898;SDS011;4988;49.238;6.698;2023-03-14T02:02:10;10.17;;;2.90;;
9898;SDS011;4988;49.238;6.698;2023-03-14T02:04:37;9.83;;;3.00;;
9898;SDS011;4988;49.238;6.698;2023-03-14T02:09:36;13.90;;;4.13;;
9898;SDS011;4988;49.238;6.698;2023-03-14T02:12:04;7.20;;;3.10;;
9898;SDS011;4988;49.238;6.698;2023-03-14T02:14:33;9.10;;;3.10;;
9898;SDS011;4988;49.238;6.698;2023-03-14T02:17:01;7.97;;;2.67;;
9898;SDS011;4988;49.238;6.698;2023-03-14T02:19:35;11.40;;;2.83;;
9898;SDS011;4988;49.238;6.698;2023-03-14T02:22:12;12.97;;;3.17;;
9898;SDS011;4988;49.238;6.698;2023-03-14T02:24:51;8.47;;;2.60;;
9898;SDS011;4988;49.238;6.698;2023-03-14T02:27:28;7.60;;;2.30;;
9898;SDS011;4988;49.238;6.698;2023-03-14T02:29:56;9.20;;;2.83;;
9898;SDS011;4988;49.238;6.698;2023-03-14T02:32:24;11.20;;;2.53;;
9898;SDS011;4988;49.238;6.698;2023-03-14T02:34:52;11.43;;;2.83;;
9898;SDS011;4988;49.238;6.698;2023-03-14T02:37:22;9.90;;;3.10;;
9898;SDS011;4988;49.238;6.698;2023-03-14T02:39:52;8.07;;;2.37;;
9898;SDS011;4988;49.238;6.698;2023-03-14T02:42:17;5.27;;;2.23;;
9898;SDS011;4988;49.238;6.698;2023-03-14T02:44:54;10.47;;;2.97;;
9898;SDS011;4988;49.238;6.698;2023-03-14T02:47:27;13.37;;;2.53;;
9898;SDS011;4988;49.238;6.698;2023-03-14T02:49:56;13.53;;;2.90;;
9898;SDS011;4988;49.238;6.698;2023-03-14T02:52:26;10.53;;;2.70;;
9898;SDS011;4988;49.238;6.698;2023-03-14T02:54:52;7.10;;;2.90;;
9898;SDS011;4988;49.238;6.698;2023-03-14T02:57:17;8.83;;;3.13;;
9898;SDS011;4988;49.238;6.698;2023-03-14T02:59:42;11.87;;;2.97;;
9898;SDS011;4988;49.238;6.698;2023-03-14T03:02:07;5.47;;;2.87;;
9898;SDS011;4988;49.238;6.698;2023-03-14T03:04:33;11.80;;;3.07;;
9898;SDS011;4988;49.238;6.698;2023-03-14T03:06:58;8.03;;;2.87;;
9898;SDS011;4988;49.238;6.698;2023-03-14T03:09:23;15.60;;;3.10;;
9898;SDS011;4988;49.238;6.698;2023-03-14T03:11:49;8.57;;;3.93;;
9898;SDS011;4988;49.238;6.698;2023-03-14T03:14:14;8.63;;;2.80;;
9898;SDS011;4988;49.238;6.698;2023-03-14T03:16:39;9.57;;;2.90;;
9898;SDS011;4988;49.238;6.698;2023-03-14T03:19:05;11.90;;;2.80;;
9898;SDS011;4988;49.238;6.698;2023-03-14T03:21:30;9.63;;;4.13;;
9898;SDS011;4988;49.238;6.698;2023-03-14T03:23:55;12.43;;;3.00;;
9898;SDS011;4988;49.238;6.698;2023-03-14T03:26:21;6.77;;;3.10;;
9898;SDS011;4988;49.238;6.698;2023-03-14T03:28:46;8.43;;;2.83;;
9898;SDS011;4988;49.238;6.698;2023-03-14T03:31:12;7.83;;;3.30;;
9898;SDS011;4988;49.238;6.698;2023-03-14T03:33:37;10.77;;;3.47;;
9898;SDS011;4988;49.238;6.698;2023-03-14T03:36:03;13.63;;;3.40;;
9898;SDS011;4988;49.238;6.698;2023-03-14T03:38:28;8.10;;;3.50;;
9898;SDS011;4988;49.238;6.698;2023-03-14T03:40:53;12.93;;;3.33;;
9898;SDS011;4988;49.238;6.698;2023-03-14T03:43:19;4.23;;;2.80;;
9898;SDS011;4988;49.238;6.698;2023-03-14T03:45:44;9.33;;;3.03;;
9898;SDS011;4988;49.238;6.698;2023-03-14T03:48:09;8.53;;;3.53;;
9898;SDS011;4988;49.238;6.698;2023-03-14T03:50:35;9.37;;;3.20;;
9898;SDS011;4988;49.238;6.698;2023-03-14T03:53:00;10.03;;;2.97;;
9898;SDS011;4988;49.238;6.698;2023-03-14T03:55:25;7.93;;;3.50;;
9898;SDS011;4988;49.238;6.698;2023-03-14T03:57:52;9.30;;;3.10;;
9898;SDS011;4988;49.238;6.698;2023-03-14T04:00:18;9.27;;;3.00;;
9898;SDS011;4988;49.238;6.698;2023-03-14T04:02:43;9.47;;;3.17;;
9898;SDS011;4988;49.238;6.698;2023-03-14T04:05:09;8.23;;;2.80;;
9898;SDS011;4988;49.238;6.698;2023-03-14T04:07:34;6.27;;;3.00;;
9898;SDS011;4988;49.238;6.698;2023-03-14T04:10:00;10.20;;;3.20;;
9898;SDS011;4988;49.238;6.698;2023-03-14T04:12:25;8.73;;;2.83;;
9898;SDS011;4988;49.238;6.698;2023-03-14T04:14:50;11.90;;;3.20;;
9898;SDS011;4988;49.238;6.698;2023-03-14T04:17:16;8.97;;;3.20;;
9898;SDS011;4988;49.238;6.698;2023-03-14T04:19:41;7.70;;;3.10;;
9898;SDS011;4988;49.238;6.698;2023-03-14T04:22:07;9.87;;;3.30;;
9898;SDS011;4988;49.238;6.698;2023-03-14T04:24:33;13.30;;;3.33;;
9898;SDS011;4988;49.238;6.698;2023-03-14T04:26:58;10.63;;;2.70;;
9898;SDS011;4988;49.238;6.698;2023-03-14T04:29:23;12.13;;;3.00;;
9898;SDS011;4988;49.238;6.698;2023-03-14T04:31:49;10.30;;;2.97;;
9898;SDS011;4988;49.238;6.698;2023-03-14T04:34:14;6.43;;;2.90;;
9898;SDS011;4988;49.238;6.698;2023-03-14T04:36:39;8.70;;;2.63;;
9898;SDS011;4988;49.238;6.698;2023-03-14T04:39:05;15.23;;;3.07;;
9898;SDS011;4988;49.238;6.698;2023-03-14T04:41:30;9.10;;;2.60;;
9898;SDS011;4988;49.238;6.698;2023-03-14T04:43:55;7.20;;;2.97;;
9898;SDS011;4988;49.238;6.698;2023-03-14T04:46:21;7.83;;;2.53;;
9898;SDS011;4988;49.238;6.698;2023-03-14T04:48:46;5.53;;;2.60;;
9898;SDS011;4988;49.238;6.698;2023-03-14T04:51:11;11.43;;;2.90;;
9898;SDS011;4988;49.238;6.698;2023-03-14T04:53:37;11.93;;;3.13;;
9898;SDS011;4988;49.238;6.698;2023-03-14T04:56:02;9.53;;;3.07;;
9898;SDS011;4988;49.238;6.698;2023-03-14T04:58:28;8.53;;;2.93;;
9898;SDS011;4988;49.238;6.698;2023-03-14T05:00:53;13.70;;;2.83;;
9898;SDS011;4988;49.238;6.698;2023-03-14T05:03:19;12.77;;;2.70;;
9898;SDS011;4988;49.238;6.698;2023-03-14T05:05:44;4.77;;;2.83;;
9898;SDS011;4988;49.238;6.698;2023-03-14T05:08:10;13.80;;;2.80;;
9898;SDS011;4988;49.238;6.698;2023-03-14T05:10:36;9.43;;;3.10;;
9898;SDS011;4988;49.238;6.698;2023-03-14T05:13:02;6.00;;;2.63;;
9898;SDS011;4988;49.238;6.698;2023-03-14T05:15:27;8.53;;;2.80;;
9898;SDS011;4988;49.238;6.698;2023-03-14T05:17:53;5.43;;;2.70;;
9898;SDS011;4988;49.238;6.698;2023-03-14T05:20:19;8.23;;;2.77;;
9898;SDS011;4988;49.238;6.698;2023-03-14T05:22:45;6.00;;;2.60;;
9898;SDS011;4988;49.238;6.698;2023-03-14T05:25:10;4.63;;;2.60;;
9898;SDS011;4988;49.238;6.698;2023-03-14T05:27:36;8.23;;;2.60;;
9898;SDS011;4988;49.238;6.698;2023-03-14T05:30:02;7.53;;;2.90;;
9898;SDS011;4988;49.238;6.698;2023-03-14T05:32:28;10.67;;;3.10;;
9898;SDS011;4988;49.238;6.698;2023-03-14T05:34:54;8.13;;;2.60;;
9898;SDS011;4988;49.238;6.698;2023-03-14T05:37:23;4.80;;;2.67;;
9898;SDS011;4988;49.238;6.698;2023-03-14T05:39:48;11.73;;;3.50;;
9898;SDS011;4988;49.238;6.698;2023-03-14T05:42:15;5.47;;;2.40;;
9898;SDS011;4988;49.238;6.698;2023-03-14T05:44:40;9.27;;;2.67;;
9898;SDS011;4988;49.238;6.698;2023-03-14T05:47:05;11.20;;;2.47;;
9898;SDS011;4988;49.238;6.698;2023-03-14T05:49:30;8.77;;;2.93;;
9898;SDS011;4988;49.238;6.698;2023-03-14T05:51:56;10.23;;;2.70;;
9898;SDS011;4988;49.238;6.698;2023-03-14T05:54:21;9.20;;;2.30;;
9898;SDS011;4988;49.238;6.698;2023-03-14T05:56:47;9.00;;;2.20;;
9898;SDS011;4988;49.238;6.698;2023-03-14T05:59:12;11.80;;;3.40;;
9898;SDS011;4988;49.238;6.698;2023-03-14T06:01:38;10.10;;;2.30;;
9898;SDS011;4988;49.238;6.698;2023-03-14T06:04:04;9.50;;;2.87;;
9898;SDS011;4988;49.238;6.698;2023-03-14T06:06:29;6.27;;;2.83;;
9898;SDS011;4988;49.238;6.698;2023-03-14T06:08:54;8.53;;;2.50;;
9898;SDS011;4988;49.238;6.698;2023-03-14T06:11:20;6.67;;;2.50;;
9898;SDS011;4988;49.238;6.698;2023-03-14T06:13:45;4.47;;;2.07;;
9898;SDS011;4988;49.238;6.698;2023-03-14T06:16:11;7.77;;;2.50;;
9898;SDS011;4988;49.238;6.698;2023-03-14T06:18:36;7.37;;;2.67;;
9898;SDS011;4988;49.238;6.698;2023-03-14T06:21:02;10.93;;;3.83;;
9898;SDS011;4988;49.238;6.698;2023-03-14T06:23:27;5.93;;;2.60;;
9898;SDS011;4988;49.238;6.698;2023-03-14T06:25:55;5.53;;;2.50;;
9898;SDS011;4988;49.238;6.698;2023-03-14T06:28:20;8.23;;;2.30;;
9898;SDS011;4988;49.238;6.698;2023-03-14T06:30:45;5.67;;;2.50;;
9898;SDS011;4988;49.238;6.698;2023-03-14T06:33:11;6.40;;;2.40;;
9898;SDS011;4988;49.238;6.698;2023-03-14T06:35:36;11.90;;;2.77;;
9898;SDS011;4988;49.238;6.698;2023-03-14T06:38:02;5.87;;;2.50;;
9898;SDS011;4988;49.238;6.698;2023-03-14T06:40:27;4.30;;;2.30;;
9898;SDS011;4988;49.238;6.698;2023-03-14T06:42:52;4.27;;;2.37;;
9898;SDS011;4988;49.238;6.698;2023-03-14T06:45:18;5.87;;;1.93;;
9898;SDS011;4988;49.238;6.698;2023-03-14T06:47:43;3.43;;;2.20;;
9898;SDS011;4988;49.238;6.698;2023-03-14T06:50:09;5.93;;;2.17;;
9898;SDS011;4988;49.238;6.698;2023-03-14T06:52:35;6.10;;;2.13;;
9898;SDS011;4988;49.238;6.698;2023-03-14T06:55:01;3.83;;;2.10;;
9898;SDS011;4988;49.238;6.698;2023-03-14T06:57:26;6.77;;;2.20;;
9898;SDS011;4988;49.238;6.698;2023-03-14T06:59:52;5.83;;;2.90;;
9898;SDS011;4988;49.238;6.698;2023-03-14T07:02:17;3.53;;;2.07;;
9898;SDS011;4988;49.238;6.698;2023-03-14T07:04:43;6.80;;;2.50;;
9898;SDS011;4988;49.238;6.698;2023-03-14T07:07:08;7.07;;;2.10;;
9898;SDS011;4988;49.238;6.698;2023-03-14T07:09:34;4.30;;;1.90;;
9898;SDS011;4988;49.238;6.698;2023-03-14T07:12:00;3.93;;;2.67;;
9898;SDS011;4988;49.238;6.698;2023-03-14T07:14:25;3.27;;;2.03;;
9898;SDS011;4988;49.238;6.698;2023-03-14T07:16:51;5.30;;;2.10;;
9898;SDS011;4988;49.238;6.698;2023-03-14T07:19:16;2.90;;;2.27;;
9898;SDS011;4988;49.238;6.698;2023-03-14T07:21:42;4.30;;;2.00;;
9898;SDS011;4988;49.238;6.698;2023-03-14T07:24:07;3.33;;;2.30;;
9898;SDS011;4988;49.238;6.698;2023-03-14T07:26:32;3.20;;;2.00;;
9898;SDS011;4988;49.238;6.698;2023-03-14T07:28:58;2.27;;;2.00;;
9898;SDS011;4988;49.238;6.698;2023-03-14T07:31:23;4.00;;;2.10;;
9898;SDS011;4988;49.238;6.698;2023-03-14T07:33:49;3.93;;;2.37;;
9898;SDS011;4988;49.238;6.698;2023-03-14T07:36:14;4.17;;;2.20;;
9898;SDS011;4988;49.238;6.698;2023-03-14T07:38:40;3.00;;;2.03;;
9898;SDS011;4988;49.238;6.698;2023-03-14T07:41:05;2.83;;;2.20;;
9898;SDS011;4988;49.238;6.698;2023-03-14T07:43:31;2.87;;;2.10;;
9898;SDS011;4988;49.238;6.698;2023-03-14T07:45:57;2.07;;;1.87;;
9898;SDS011;4988;49.238;6.698;2023-03-14T07:48:22;2.63;;;2.07;;
9898;SDS011;4988;49.238;6.698;2023-03-14T07:50:50;3.13;;;2.17;;
9898;SDS011;4988;49.238;6.698;2023-03-14T07:53:16;3.13;;;2.37;;
9898;SDS011;4988;49.238;6.698;2023-03-14T07:55:42;4.03;;;2.30;;
9898;SDS011;4988;49.238;6.698;2023-03-14T07:58:07;2.20;;;2.10;;
9898;SDS011;4988;49.238;6.698;2023-03-14T08:00:33;2.20;;;2.00;;
9898;SDS011;4988;49.238;6.698;2023-03-14T08:02:58;3.20;;;2.00;;
9898;SDS011;4988;49.238;6.698;2023-03-14T08:05:23;2.30;;;2.10;;
9898;SDS011;4988;49.238;6.698;2023-03-14T08:07:49;5.23;;;2.50;;
9898;SDS011;4988;49.238;6.698;2023-03-14T08:10:14;4.27;;;2.00;;
9898;SDS011;4988;49.238;6.698;2023-03-14T08:12:50;4.73;;;2.60;;
9898;SDS011;4988;49.238;6.698;2023-03-14T08:15:16;2.13;;;1.63;;
9898;SDS011;4988;49.238;6.698;2023-03-14T08:17:42;2.40;;;2.00;;
9898;SDS011;4988;49.238;6.698;2023-03-14T08:20:07;2.17;;;2.00;;
9898;SDS011;4988;49.238;6.698;2023-03-14T08:22:35;2.57;;;2.20;;
9898;SDS011;4988;49.238;6.698;2023-03-14T08:25:01;2.40;;;2.00;;
9898;SDS011;4988;49.238;6.698;2023-03-14T08:27:26;2.40;;;1.90;;
9898;SDS011;4988;49.238;6.698;2023-03-14T08:29:52;2.00;;;1.90;;
9898;SDS011;4988;49.238;6.698;2023-03-14T08:32:17;3.43;;;1.50;;
9898;SDS011;4988;49.238;6.698;2023-03-14T08:34:44;2.27;;;1.80;;
9898;SDS011;4988;49.238;6.698;2023-03-14T08:37:10;2.17;;;1.80;;
9898;SDS011;4988;49.238;6.698;2023-03-14T08:39:35;2.07;;;1.87;;
9898;SDS011;4988;49.238;6.698;2023-03-14T08:42:00;1.77;;;1.50;;
9898;SDS011;4988;49.238;6.698;2023-03-14T08:44:26;2.30;;;2.10;;
9898;SDS011;4988;49.238;6.698;2023-03-14T08:46:51;3.83;;;1.70;;
9898;SDS011;4988;49.238;6.698;2023-03-14T08:49:16;1.70;;;1.60;;
9898;SDS011;4988;49.238;6.698;2023-03-14T08:51:42;2.37;;;2.17;;
9898;SDS011;4988;49.238;6.698;2023-03-14T08:54:09;2.67;;;2.40;;
9898;SDS011;4988;49.238;6.698;2023-03-14T08:56:35;2.00;;;1.70;;
9898;SDS011;4988;49.238;6.698;2023-03-14T08:59:02;3.37;;;2.00;;
9898;SDS011;4988;49.238;6.698;2023-03-14T09:01:28;3.70;;;1.90;;
9898;SDS011;4988;49.238;6.698;2023-03-14T09:03:53;6.80;;;2.60;;
9898;SDS011;4988;49.238;6.698;2023-03-14T09:06:19;2.40;;;1.80;;
9898;SDS011;4988;49.238;6.698;2023-03-14T09:08:44;2.13;;;2.00;;
9898;SDS011;4988;49.238;6.698;2023-03-14T09:11:10;2.33;;;2.10;;
9898;SDS011;4988;49.238;6.698;2023-03-14T09:13:36;2.00;;;1.80;;
9898;SDS011;4988;49.238;6.698;2023-03-14T09:16:02;1.90;;;1.80;;
9898;SDS011;4988;49.238;6.698;2023-03-14T09:18:27;2.17;;;2.07;;
9898;SDS011;4988;49.238;6.698;2023-03-14T09:20:53;4.10;;;2.20;;
9898;SDS011;4988;49.238;6.698;2023-03-14T09:23:20;1.90;;;1.60;;
9898;SDS011;4988;49.238;6.698;2023-03-14T09:25:46;1.90;;;1.80;;
9898;SDS011;4988;49.238;6.698;2023-03-14T09:28:11;2.90;;;2.03;;
9898;SDS011;4988;49.238;6.698;2023-03-14T09:30:37;2.30;;;2.10;;
9898;SDS011;4988;49.238;6.698;2023-03-14T09:33:02;2.10;;;2.00;;
9898;SDS011;4988;49.238;6.698;2023-03-14T09:35:27;2.50;;;2.30;;
9898;SDS011;4988;49.238;6.698;2023-03-14T09:37:53;2.23;;;2.03;;
9898;SDS011;4988;49.238;6.698;2023-03-14T09:40:19;2.23;;;2.13;;
9898;SDS011;4988;49.238;6.698;2023-03-14T09:42:45;2.53;;;2.33;;
9898;SDS011;4988;49.238;6.698;2023-03-14T09:45:17;2.60;;;2.40;;
9898;SDS011;4988;49.238;6.698;2023-03-14T09:47:50;2.20;;;2.10;;
9898;SDS011;4988;49.238;6.698;2023-03-14T09:50:16;3.93;;;2.50;;
9898;SDS011;4988;49.238;6.698;2023-03-14T09:52:42;2.90;;;2.23;;
9898;SDS011;4988;49.238;6.698;2023-03-14T09:55:13;2.17;;;2.03;;
9898;SDS011;4988;49.238;6.698;2023-03-14T09:57:42;2.40;;;2.20;;
9898;SDS011;4988;49.238;6.698;2023-03-14T10:02:51;2.10;;;2.00;;
9898;SDS011;4988;49.238;6.698;2023-03-14T10:05:20;2.40;;;2.20;;
9898;SDS011;4988;49.238;6.698;2023-03-14T10:07:47;4.53;;;2.23;;
9898;SDS011;4988;49.238;6.698;2023-03-14T10:12:41;3.00;;;2.70;;
9898;SDS011;4988;49.238;6.698;2023-03-14T10:15:08;2.67;;;2.47;;
9898;SDS011;4988;49.238;6.698;2023-03-14T10:17:44;3.10;;;2.40;;
9898;SDS011;4988;49.238;6.698;2023-03-14T10:20:29;3.00;;;2.70;;
9898;SDS011;4988;49.238;6.698;2023-03-14T10:23:07;2.93;;;2.20;;
9898;SDS011;4988;49.238;6.698;2023-03-14T10:28:44;4.90;;;2.80;;
9898;SDS011;4988;49.238;6.698;2023-03-14T10:31:11;4.17;;;2.80;;
9898;SDS011;4988;49.238;6.698;2023-03-14T10:33:37;3.47;;;2.83;;
9898;SDS011;4988;49.238;6.698;2023-03-14T10:38:35;4.33;;;2.73;;
9898;SDS011;4988;49.238;6.698;2023-03-14T10:41:01;4.00;;;2.43;;
9898;SDS011;4988;49.238;6.698;2023-03-14T10:43:39;5.97;;;2.53;;
9898;SDS011;4988;49.238;6.698;2023-03-14T10:48:38;4.93;;;2.90;;
9898;SDS011;4988;49.238;6.698;2023-03-14T10:51:07;4.87;;;2.73;;
9898;SDS011;4988;49.238;6.698;2023-03-14T10:56:11;3.00;;;2.37;;
9898;SDS011;4988;49.238;6.698;2023-03-14T10:58:42;2.93;;;2.47;;
9898;SDS011;4988;49.238;6.698;2023-03-14T11:06:41;3.27;;;2.50;;
9898;SDS011;4988;49.238;6.698;2023-03-14T11:09:18;2.80;;;2.47;;
9898;SDS011;4988;49.238;6.698;2023-03-14T11:12:01;2.50;;;2.30;;
9898;SDS011;4988;49.238;6.698;2023-03-14T11:14:52;6.53;;;2.30;;
9898;SDS011;4988;49.238;6.698;2023-03-14T11:17:26;4.30;;;1.70;;
9898;SDS011;4988;49.238;6.698;2023-03-14T11:22:41;2.87;;;1.83;;
9898;SDS011;4988;49.238;6.698;2023-03-14T11:27:53;4.97;;;2.20;;
9898;SDS011;4988;49.238;6.698;2023-03-14T11:30:39;3.60;;;1.90;;
9898;SDS011;4988;49.238;6.698;2023-03-14T11:33:14;3.07;;;2.00;;
9898;SDS011;4988;49.238;6.698;2023-03-14T11:41:16;4.47;;;2.30;;
9898;SDS011;4988;49.238;6.698;2023-03-14T11:43:48;3.33;;;2.10;;
9898;SDS011;4988;49.238;6.698;2023-03-14T11:46:23;3.33;;;2.33;;
9898;SDS011;4988;49.238;6.698;2023-03-14T11:48:56;2.60;;;1.93;;
9898;SDS011;4988;49.238;6.698;2023-03-14T11:51:35;4.33;;;2.17;;
9898;SDS011;4988;49.238;6.698;2023-03-14T11:56:59;2.77;;;1.93;;
9898;SDS011;4988;49.238;6.698;2023-03-14T11:59:29;4.90;;;2.40;;
9898;SDS011;4988;49.238;6.698;2023-03-14T12:02:04;4.30;;;2.30;;
9898;SDS011;4988;49.238;6.698;2023-03-14T12:07:30;2.20;;;2.00;;
9898;SDS011;4988;49.238;6.698;2023-03-14T12:10:03;2.57;;;2.10;;
9898;SDS011;4988;49.238;6.698;2023-03-14T12:12:29;4.97;;;2.17;;
9898;SDS011;4988;49.238;6.698;2023-03-14T12:14:57;2.83;;;2.60;;
9898;SDS011;4988;49.238;6.698;2023-03-14T12:17:34;2.53;;;2.33;;
9898;SDS011;4988;49.238;6.698;2023-03-14T12:20:03;4.10;;;2.10;;
9898;SDS011;4988;49.238;6.698;2023-03-14T12:22:33;2.50;;;2.27;;
9898;SDS011;4988;49.238;6.698;2023-03-14T12:25:02;4.40;;;2.33;;
9898;SDS011;4988;49.238;6.698;2023-03-14T12:27:40;4.77;;;2.27;;
9898;SDS011;4988;49.238;6.698;2023-03-14T12:30:30;3.43;;;2.00;;
9898;SDS011;4988;49.238;6.698;2023-03-14T12:33:11;3.43;;;2.03;;
9898;SDS011;4988;49.238;6.698;2023-03-14T12:35:45;2.47;;;2.10;;
9898;SDS011;4988;49.238;6.698;2023-03-14T12:38:27;3.27;;;1.70;;
9898;SDS011;4988;49.238;6.698;2023-03-14T12:43:39;4.50;;;2.30;;
9898;SDS011;4988;49.238;6.698;2023-03-14T12:49:24;3.93;;;2.27;;
9898;SDS011;4988;49.238;6.698;2023-03-14T12:51:37;2.93;;;2.00;;
9898;SDS011;4988;49.238;6.698;2023-03-14T12:59:32;4.73;;;1.97;;
9898;SDS011;4988;49.238;6.698;2023-03-14T13:02:01;4.23;;;2.10;;
9898;SDS011;4988;49.238;6.698;2023-03-14T13:10:28;3.67;;;2.13;;
9898;SDS011;4988;49.238;6.698;2023-03-14T13:13:01;3.03;;;2.00;;
9898;SDS011;4988;49.238;6.698;2023-03-14T13:15:38;6.23;;;2.30;;
9898;SDS011;4988;49.238;6.698;2023-03-14T13:18:10;3.27;;;1.90;;
9898;SDS011;4988;49.238;6.698;2023-03-14T13:23:20;6.13;;;2.10;;
9898;SDS011;4988;49.238;6.698;2023-03-14T13:25:47;6.27;;;2.00;;
9898;SDS011;4988;49.238;6.698;2023-03-14T13:28:13;4.50;;;2.10;;
9898;SDS011;4988;49.238;6.698;2023-03-14T13:30:40;5.67;;;2.50;;
9898;SDS011;4988;49.238;6.698;2023-03-14T13:33:11;8.23;;;2.43;;
9898;SDS011;4988;49.238;6.698;2023-03-14T13:35:40;4.43;;;2.27;;
9898;SDS011;4988;49.238;6.698;2023-03-14T13:38:41;6.53;;;2.30;;
9898;SDS011;4988;49.238;6.698;2023-03-14T13:41:03;6.30;;;2.27;;
9898;SDS011;4988;49.238;6.698;2023-03-14T13:43:39;3.27;;;2.07;;
9898;SDS011;4988;49.238;6.698;2023-03-14T13:46:10;6.87;;;2.33;;
9898;SDS011;4988;49.238;6.698;2023-03-14T13:48:42;8.47;;;2.83;;
9898;SDS011;4988;49.238;6.698;2023-03-14T13:51:12;8.53;;;2.60;;
9898;SDS011;4988;49.238;6.698;2023-03-14T13:53:58;3.07;;;2.03;;
9898;SDS011;4988;49.238;6.698;2023-03-14T13:56:28;4.10;;;2.17;;
9898;SDS011;4988;49.238;6.698;2023-03-14T13:58:56;4.07;;;2.40;;
9898;SDS011;4988;49.238;6.698;2023-03-14T14:01:22;8.07;;;2.97;;
9898;SDS011;4988;49.238;6.698;2023-03-14T14:03:57;4.37;;;2.10;;
9898;SDS011;4988;49.238;6.698;2023-03-14T14:09:16;7.33;;;2.20;;
9898;SDS011;4988;49.238;6.698;2023-03-14T14:14:28;5.53;;;2.53;;
9898;SDS011;4988;49.238;6.698;2023-03-14T14:16:57;4.87;;;2.00;;
9898;SDS011;4988;49.238;6.698;2023-03-14T14:19:24;3.47;;;2.20;;
9898;SDS011;4988;49.238;6.698;2023-03-14T14:21:53;7.63;;;2.20;;
9898;SDS011;4988;49.238;6.698;2023-03-14T14:24:19;9.63;;;2.60;;
9898;SDS011;4988;49.238;6.698;2023-03-14T14:26:58;5.93;;;2.13;;
9898;SDS011;4988;49.238;6.698;2023-03-14T14:29:33;4.73;;;2.63;;
9898;SDS011;4988;49.238;6.698;2023-03-14T14:32:18;6.83;;;2.60;;
9898;SDS011;4988;49.238;6.698;2023-03-14T14:34:47;14.07;;;3.63;;
9898;SDS011;4988;49.238;6.698;2023-03-14T14:37:26;6.10;;;2.50;;
9898;SDS011;4988;49.238;6.698;2023-03-14T14:40:00;6.03;;;2.40;;
9898;SDS011;4988;49.238;6.698;2023-03-14T14:42:33;7.27;;;2.43;;
9898;SDS011;4988;49.238;6.698;2023-03-14T14:44:59;6.93;;;2.67;;
9898;SDS011;4988;49.238;6.698;2023-03-14T14:47:27;9.70;;;3.30;;
9898;SDS011;4988;49.238;6.698;2023-03-14T14:49:54;9.07;;;3.47;;
9898;SDS011;4988;49.238;6.698;2023-03-14T14:52:42;5.70;;;2.73;;
9898;SDS011;4988;49.238;6.698;2023-03-14T14:55:18;7.33;;;3.30;;
9898;SDS011;4988;49.238;6.698;2023-03-14T14:57:52;6.03;;;3.60;;
9898;SDS011;4988;49.238;6.698;2023-03-14T15:00:25;8.63;;;3.63;;
9898;SDS011;4988;49.238;6.698;2023-03-14T15:02:53;8.60;;;3.83;;
9898;SDS011;4988;49.238;6.698;2023-03-14T15:05:24;4.07;;;2.50;;
9898;SDS011;4988;49.238;6.698;2023-03-14T15:07:51;7.67;;;2.53;;
9898;SDS011;4988;49.238;6.698;2023-03-14T15:10:18;4.33;;;2.30;;
9898;SDS011;4988;49.238;6.698;2023-03-14T15:12:45;4.80;;;2.50;;
9898;SDS011;4988;49.238;6.698;2023-03-14T15:15:12;6.60;;;2.40;;
9898;SDS011;4988;49.238;6.698;2023-03-14T15:17:38;6.13;;;2.20;;
9898;SDS011;4988;49.238;6.698;2023-03-14T15:20:04;12.13;;;2.30;;
9898;SDS011;4988;49.238;6.698;2023-03-14T15:22:31;8.30;;;2.40;;
9898;SDS011;4988;49.238;6.698;2023-03-14T15:24:57;6.57;;;2.07;;
9898;SDS011;4988;49.238;6.698;2023-03-14T15:27:23;6.23;;;3.17;;
9898;SDS011;4988;49.238;6.698;2023-03-14T15:29:48;5.10;;;2.17;;
9898;SDS011;4988;49.238;6.698;2023-03-14T15:32:15;5.17;;;2.43;;
9898;SDS011;4988;49.238;6.698;2023-03-14T15:34:41;6.30;;;2.63;;
9898;SDS011;4988;49.238;6.698;2023-03-14T15:37:14;6.37;;;2.40;;
9898;SDS011;4988;49.238;6.698;2023-03-14T15:39:42;6.23;;;2.30;;
9898;SDS011;4988;49.238;6.698;2023-03-14T15:42:08;7.73;;;2.47;;
9898;SDS011;4988;49.238;6.698;2023-03-14T15:44:34;6.17;;;2.53;;
9898;SDS011;4988;49.238;6.698;2023-03-14T15:47:00;6.90;;;2.27;;
9898;SDS011;4988;49.238;6.698;2023-03-14T15:49:26;8.63;;;2.50;;
9898;SDS011;4988;49.238;6.698;2023-03-14T15:51:51;7.27;;;3.20;;
9898;SDS011;4988;49.238;6.698;2023-03-14T15:54:16;11.53;;;2.33;;
9898;SDS011;4988;49.238;6.698;2023-03-14T15:56:42;11.70;;;3.00;;
9898;SDS011;4988;49.238;6.698;2023-03-14T15:59:07;4.33;;;2.60;;
9898;SDS011;4988;49.238;6.698;2023-03-14T16:01:33;7.67;;;2.80;;
9898;SDS011;4988;49.238;6.698;2023-03-14T16:03:58;7.10;;;3.10;;
9898;SDS011;4988;49.238;6.698;2023-03-14T16:06:23;5.80;;;2.70;;
9898;SDS011;4988;49.238;6.698;2023-03-14T16:08:49;9.03;;;3.00;;
9898;SDS011;4988;49.238;6.698;2023-03-14T16:11:15;8.33;;;3.00;;
9898;SDS011;4988;49.238;6.698;2023-03-14T16:13:42;6.73;;;3.03;;
9898;SDS011;4988;49.238;6.698;2023-03-14T16:16:08;8.43;;;4.03;;
9898;SDS011;4988;49.238;6.698;2023-03-14T16:18:35;7.80;;;3.90;;
9898;SDS011;4988;49.238;6.698;2023-03-14T16:21:02;6.47;;;3.20;;
9898;SDS011;4988;49.238;6.698;2023-03-14T16:23:33;7.80;;;2.90;;
9898;SDS011;4988;49.238;6.698;2023-03-14T16:26:02;6.83;;;2.70;;
9898;SDS011;4988;49.238;6.698;2023-03-14T16:28:32;7.10;;;3.50;;